createdAt,value
2018-09-27T00:02:42.243Z,15.31
2018-09-27T00:07:44.398Z,15.37
2018-09-27T00:12:46.551Z,15.39
2018-09-27T00:17:48.955Z,15.41
2018-09-27T00:22:51.102Z,15.39
2018-09-27T00:27:53.214Z,15.43
2018-09-27T00:32:55.377Z,15.42
2018-09-27T00:37:57.702Z,15.42
2018-09-27T00:42:59.820Z,15.45
2018-09-27T00:48:01.999Z,15.45
2018-09-27T00:53:04.136Z,15.48
2018-09-27T00:58:06.544Z,15.50
2018-09-27T01:03:08.736Z,15.53
2018-09-27T01:08:10.906Z,15.49
2018-09-27T01:13:13.048Z,15.51
2018-09-27T01:18:15.191Z,15.53
2018-09-27T01:23:17.315Z,15.48
2018-09-27T01:28:19.453Z,15.48
2018-09-27T01:33:21.546Z,15.51
2018-09-27T01:38:23.728Z,15.50
2018-09-27T01:43:25.864Z,15.50
2018-09-27T01:48:28.033Z,15.48
2018-09-27T01:53:30.162Z,15.50
2018-09-27T01:58:32.302Z,15.51
2018-09-27T02:03:34.511Z,15.47
2018-09-27T02:08:37.259Z,15.45
2018-09-27T02:13:39.408Z,15.51
2018-09-27T02:18:41.538Z,15.55
2018-09-27T02:23:43.676Z,15.54
2018-09-27T02:28:46.284Z,15.52
2018-09-27T02:33:48.370Z,15.52
2018-09-27T02:38:50.550Z,15.53
2018-09-27T02:43:52.714Z,15.57
2018-09-27T02:48:54.842Z,15.56
2018-09-27T02:53:56.992Z,15.58
2018-09-27T02:58:59.150Z,15.57
2018-09-27T03:04:01.343Z,15.60
2018-09-27T03:09:06.887Z,15.60
2018-09-27T03:14:09.008Z,15.56
2018-09-27T03:19:11.171Z,15.56
2018-09-27T03:24:13.335Z,15.57
2018-09-27T03:29:15.478Z,15.62
2018-09-27T03:34:17.642Z,15.56
2018-09-27T03:39:20.074Z,15.57
2018-09-27T03:44:22.218Z,15.52
2018-09-27T03:49:24.394Z,15.60
2018-09-27T03:54:26.557Z,15.56
2018-09-27T03:59:28.720Z,15.59
2018-09-27T04:04:30.903Z,15.52
2018-09-27T04:09:33.012Z,15.49
2018-09-27T04:14:35.155Z,15.50
2018-09-27T04:19:37.346Z,15.50
2018-09-27T04:24:39.498Z,15.49
2018-09-27T04:29:41.683Z,15.49
2018-09-27T04:34:43.834Z,15.47
2018-09-27T04:39:45.977Z,15.50
2018-09-27T04:44:48.085Z,15.49
2018-09-27T04:49:50.217Z,15.50
2018-09-27T04:54:52.355Z,15.48
2018-09-27T04:59:54.567Z,15.52
2018-09-27T05:04:56.675Z,15.42
2018-09-27T05:09:58.800Z,15.46
2018-09-27T05:15:00.902Z,15.46
2018-09-27T05:20:03.073Z,15.48
2018-09-27T05:25:05.260Z,15.50
2018-09-27T05:30:07.441Z,15.57
2018-09-27T05:35:09.570Z,15.55
2018-09-27T05:40:11.682Z,15.53
2018-09-27T05:45:13.861Z,15.52
2018-09-27T05:50:16.041Z,15.57
2018-09-27T05:55:18.230Z,15.61
2018-09-27T06:00:20.407Z,15.58
2018-09-27T06:05:22.599Z,15.63
2018-09-27T06:10:24.767Z,15.63
2018-09-27T06:15:26.966Z,15.61
2018-09-27T06:20:29.096Z,15.68
2018-09-27T06:25:31.222Z,15.76
2018-09-27T06:30:33.367Z,15.84
2018-09-27T06:35:35.619Z,15.87
2018-09-27T06:40:37.777Z,15.90
2018-09-27T06:45:39.894Z,15.90
2018-09-27T06:50:42.376Z,15.92
2018-09-27T06:55:44.577Z,15.96
2018-09-27T07:00:46.720Z,16.01
2018-09-27T07:05:48.870Z,16.08
2018-09-27T07:10:51.019Z,16.15
2018-09-27T07:15:53.384Z,16.23
2018-09-27T07:20:55.535Z,16.27
2018-09-27T07:25:57.653Z,16.30
2018-09-27T07:30:59.867Z,16.39
2018-09-27T07:36:02.103Z,16.46
2018-09-27T07:41:04.218Z,16.57
2018-09-27T07:46:06.454Z,16.65
2018-09-27T07:51:08.660Z,16.73
2018-09-27T07:56:10.808Z,16.87
2018-09-27T08:01:13.177Z,16.84
2018-09-27T08:06:15.392Z,16.82
2018-09-27T08:11:17.695Z,16.65
2018-09-27T08:16:19.720Z,16.71
2018-09-27T08:21:21.886Z,16.78
2018-09-27T08:26:24.048Z,16.80
2018-09-27T08:31:26.208Z,16.72
2018-09-27T08:36:28.697Z,16.79
2018-09-27T08:41:30.807Z,16.85
2018-09-27T08:46:33.164Z,16.89
2018-09-27T08:51:36.395Z,16.91
2018-09-27T08:56:38.493Z,16.96
2018-09-27T09:01:40.720Z,16.98
2018-09-27T09:06:42.847Z,16.93
2018-09-27T09:11:45.000Z,16.64
2018-09-27T09:16:47.150Z,16.88
2018-09-27T09:21:49.282Z,16.92
2018-09-27T09:26:51.434Z,16.88
2018-09-27T09:31:53.649Z,16.95
2018-09-27T09:36:55.957Z,17.11
2018-09-27T09:41:58.105Z,17.22
2018-09-27T09:47:00.435Z,17.36
2018-09-27T09:52:02.600Z,17.40
2018-09-27T09:57:05.140Z,17.50
2018-09-27T10:02:07.328Z,17.54
2018-09-27T10:07:09.476Z,17.60
2018-09-27T10:12:11.611Z,17.67
2018-09-27T10:17:13.758Z,17.87
2018-09-27T10:22:15.911Z,18.22
2018-09-27T10:27:18.079Z,18.47
2018-09-27T10:32:20.243Z,18.69
2018-09-27T10:37:22.394Z,19.13
2018-09-27T10:42:24.510Z,19.29
2018-09-27T10:47:26.709Z,19.08
2018-09-27T10:52:28.840Z,19.31
2018-09-27T10:57:30.976Z,19.32
2018-09-27T11:02:33.165Z,18.89
2018-09-27T11:07:35.341Z,18.74
2018-09-27T11:12:37.521Z,18.57
2018-09-27T11:17:39.808Z,18.42
2018-09-27T11:22:41.966Z,18.34
2018-09-27T11:27:44.524Z,18.20
2018-09-27T11:32:46.975Z,18.34
2018-09-27T11:37:49.079Z,18.51
2018-09-27T11:42:51.308Z,18.46
2018-09-27T11:47:53.433Z,18.46
2018-09-27T11:52:55.686Z,18.47
2018-09-27T11:57:57.872Z,18.57
2018-09-27T12:03:00.054Z,18.69
2018-09-27T12:08:02.344Z,18.91
2018-09-27T12:13:04.549Z,19.39
2018-09-27T12:18:06.716Z,19.81
2018-09-27T12:23:08.920Z,19.47
2018-09-27T12:28:11.061Z,19.19
2018-09-27T12:33:13.273Z,19.04
2018-09-27T12:38:15.483Z,18.91
2018-09-27T12:43:17.681Z,18.71
2018-09-27T12:48:19.870Z,18.57
2018-09-27T12:53:22.028Z,18.45
2018-09-27T12:58:24.217Z,18.32
2018-09-27T13:03:26.525Z,18.35
2018-09-27T13:08:28.807Z,18.22
2018-09-27T13:13:31.052Z,18.18
2018-09-27T13:18:33.115Z,18.03
2018-09-27T13:23:35.259Z,17.97
2018-09-27T13:28:37.478Z,18.04
2018-09-27T13:33:39.608Z,18.02
2018-09-27T13:38:42.007Z,18.02
2018-09-27T13:43:44.262Z,18.08
2018-09-27T13:48:46.435Z,18.06
2018-09-27T13:53:48.941Z,18.07
2018-09-27T13:58:51.108Z,18.13
2018-09-27T14:03:53.291Z,18.09
2018-09-27T14:08:55.479Z,18.10
2018-09-27T14:13:57.663Z,18.02
2018-09-27T14:18:59.834Z,17.83
2018-09-27T14:24:01.986Z,17.90
2018-09-27T14:29:04.170Z,17.97
2018-09-27T14:34:06.493Z,17.91
2018-09-27T14:39:09.507Z,17.92
2018-09-27T14:44:11.730Z,17.95
2018-09-27T14:49:13.892Z,18.06
2018-09-27T14:54:16.097Z,18.45
2018-09-27T14:59:18.520Z,18.92
2018-09-27T15:04:20.732Z,18.82
2018-09-27T15:09:23.011Z,18.61
2018-09-27T15:14:25.169Z,18.47
2018-09-27T15:19:27.347Z,18.41
2018-09-27T15:24:29.531Z,18.31
2018-09-27T15:29:31.756Z,18.20
2018-09-27T15:34:34.017Z,18.27
2018-09-27T15:39:36.221Z,18.18
2018-09-27T15:44:38.497Z,18.15
2018-09-27T15:49:40.720Z,18.09
2018-09-27T15:54:42.949Z,18.09
2018-09-27T15:59:45.226Z,18.00
2018-09-27T16:04:47.456Z,18.03
2018-09-27T16:09:49.701Z,17.98
2018-09-27T16:14:52.094Z,17.93
2018-09-27T16:19:54.301Z,17.88
2018-09-27T16:24:56.499Z,17.88
2018-09-27T16:29:58.713Z,17.87
2018-09-27T16:35:00.899Z,17.81
2018-09-27T16:40:03.411Z,17.79
2018-09-27T16:45:05.725Z,17.79
2018-09-27T16:50:07.887Z,17.79
2018-09-27T16:55:10.083Z,17.76
2018-09-27T17:00:12.317Z,17.71
2018-09-27T17:05:14.478Z,17.73
2018-09-27T17:10:16.715Z,17.63
2018-09-27T17:15:18.889Z,17.65
2018-09-27T17:20:21.111Z,17.58
2018-09-27T17:25:23.319Z,17.62
2018-09-27T17:30:26.125Z,17.58
2018-09-27T17:35:28.343Z,17.67
2018-09-27T17:40:30.554Z,17.63
2018-09-27T17:45:33.141Z,17.62
2018-09-27T17:50:35.724Z,17.64
2018-09-27T17:55:37.977Z,17.64
2018-09-27T18:00:40.201Z,17.60
2018-09-27T18:05:42.525Z,17.60
2018-09-27T18:10:44.705Z,17.59
2018-09-27T18:15:46.883Z,17.64
2018-09-27T18:20:49.505Z,17.58
2018-09-27T18:25:51.746Z,17.67
2018-09-27T18:30:54.016Z,17.56
2018-09-27T18:35:56.389Z,17.51
2018-09-27T18:40:58.789Z,17.54
2018-09-27T18:46:01.114Z,17.57
2018-09-27T18:51:03.441Z,17.52
2018-09-27T18:56:06.250Z,17.52
2018-09-27T19:01:08.702Z,17.46
2018-09-27T19:06:11.312Z,17.51
2018-09-27T19:11:13.874Z,17.47
2018-09-27T19:16:16.387Z,17.47
2018-09-27T19:21:18.989Z,17.45
2018-09-27T19:26:22.853Z,17.44
2018-09-27T19:31:25.276Z,17.32
2018-09-27T19:36:27.715Z,17.34
2018-09-27T19:41:30.186Z,17.35
2018-09-27T19:46:32.570Z,17.46
2018-09-27T19:51:35.002Z,17.40
2018-09-27T19:56:37.397Z,17.43
2018-09-27T20:01:39.929Z,17.49
2018-09-27T20:06:42.377Z,17.42
2018-09-27T20:11:44.709Z,17.39
2018-09-27T20:16:47.089Z,17.38
2018-09-27T20:21:49.314Z,17.31
2018-09-27T20:26:51.560Z,17.25
2018-09-27T20:31:54.124Z,17.24
2018-09-27T20:36:56.421Z,17.26
2018-09-27T20:41:58.733Z,17.32
2018-09-27T20:47:01.000Z,17.23
2018-09-27T20:52:03.304Z,17.19
2018-09-27T20:57:05.832Z,17.16
2018-09-27T21:02:08.102Z,17.14
2018-09-27T21:07:10.414Z,17.17
2018-09-27T21:12:12.681Z,17.23
2018-09-27T21:17:14.894Z,17.18
2018-09-27T21:22:17.142Z,17.08
2018-09-27T21:27:19.332Z,16.89
2018-09-27T21:32:21.511Z,16.78
2018-09-27T21:37:23.688Z,16.68
2018-09-27T21:42:25.840Z,16.67
2018-09-27T21:47:27.986Z,16.68
2018-09-27T21:52:30.139Z,16.59
2018-09-27T21:57:32.324Z,16.46
2018-09-27T22:02:34.542Z,16.43
2018-09-27T22:07:36.718Z,16.48
2018-09-27T22:12:39.011Z,16.47
2018-09-27T22:17:41.158Z,16.45
2018-09-27T22:22:43.527Z,16.39
2018-09-27T22:27:45.695Z,16.36
2018-09-27T22:32:48.221Z,16.36
2018-09-27T22:37:50.352Z,16.33
2018-09-27T22:42:52.504Z,16.35
2018-09-27T22:47:54.666Z,16.39
2018-09-27T22:52:56.828Z,16.32
2018-09-27T22:57:58.970Z,16.22
2018-09-27T23:03:01.467Z,16.16
2018-09-27T23:08:03.617Z,16.21
2018-09-27T23:13:06.581Z,16.15
2018-09-27T23:18:10.078Z,16.05
2018-09-27T23:23:12.235Z,15.98
2018-09-27T23:28:14.388Z,15.77
2018-09-27T23:33:16.558Z,15.70
2018-09-27T23:38:18.727Z,15.61
2018-09-27T23:43:20.851Z,15.69
2018-09-27T23:48:22.986Z,15.62
2018-09-27T23:53:25.179Z,15.54
2018-09-27T23:58:27.295Z,15.51
